sensor_id;sensor_type;location;lat;lon;timestamp;pressure;altitude;pressure_sealevel;temperature;humidity
77631;BME280;66798;47.370;8.552;2023-04-15T07:36:19;95723.84;;;10.15;53.46
77631;BME280;66798;47.370;8.552;2023-04-15T07:38:45;95725.03;;;10.75;53.09
77631;BME280;66798;47.370;8.552;2023-04-15T07:41:10;95716.56;;;10.64;51.40
77631;BME280;66798;47.370;8.552;2023-04-15T07:43:36;95722.78;;;9.78;53.85
77631;BME280;66798;47.370;8.552;2023-04-15T07:46:02;95723.31;;;10.84;52.70
77631;BME280;66798;47.370;8.552;2023-04-15T07:48:27;95726.75;;;11.95;49.48
77631;BME280;66798;47.370;8.552;2023-04-15T07:50:52;95724.38;;;12.66;49.09
77631;BME280;66798;47.370;8.552;2023-04-15T07:53:18;95725.13;;;13.21;47.10
77631;BME280;66798;47.370;8.552;2023-04-15T07:55:44;95723.09;;;11.13;51.52
77631;BME280;66798;47.370;8.552;2023-04-15T07:58:10;95727.47;;;11.18;51.84
77631;BME280;66798;47.370;8.552;2023-04-15T08:00:36;95717.25;;;10.18;55.03
77631;BME280;66798;47.370;8.552;2023-04-15T08:03:02;95718.72;;;11.86;51.36
77631;BME280;66798;47.370;8.552;2023-04-15T08:05:28;95717.28;;;12.75;48.90
77631;BME280;66798;47.370;8.552;2023-04-15T08:07:53;95719.00;;;13.43;46.48
77631;BME280;66798;47.370;8.552;2023-04-15T08:10:19;95723.41;;;13.65;46.56
77631;BME280;66798;47.370;8.552;2023-04-15T08:12:44;95717.88;;;13.92;46.25
77631;BME280;66798;47.370;8.552;2023-04-15T08:15:13;95728.31;;;14.23;44.34
77631;BME280;66798;47.370;8.552;2023-04-15T08:17:38;95724.19;;;12.40;48.04
77631;BME280;66798;47.370;8.552;2023-04-15T08:20:05;95727.03;;;13.29;47.09
77631;BME280;66798;47.370;8.552;2023-04-15T08:22:30;95717.81;;;13.75;46.72
77631;BME280;66798;47.370;8.552;2023-04-15T08:24:56;95724.44;;;14.73;44.44
77631;BME280;66798;47.370;8.552;2023-04-15T08:27:22;95730.38;;;15.08;42.04
77631;BME280;66798;47.370;8.552;2023-04-15T08:29:47;95729.31;;;15.10;42.00
77631;BME280;66798;47.370;8.552;2023-04-15T08:32:13;95724.66;;;12.42;49.13
77631;BME280;66798;47.370;8.552;2023-04-15T08:34:39;95732.59;;;13.67;46.30
77631;BME280;66798;47.370;8.552;2023-04-15T08:37:04;95730.19;;;14.32;43.63
77631;BME280;66798;47.370;8.552;2023-04-15T08:39:30;95730.97;;;14.23;43.01
77631;BME280;66798;47.370;8.552;2023-04-15T08:42:03;95727.84;;;11.80;48.11
77631;BME280;66798;47.370;8.552;2023-04-15T08:44:33;95732.22;;;12.80;46.44
77631;BME280;66798;47.370;8.552;2023-04-15T08:47:00;95723.47;;;13.02;46.09
77631;BME280;66798;47.370;8.552;2023-04-15T08:49:27;95723.00;;;13.00;46.00
77631;BME280;66798;47.370;8.552;2023-04-15T08:51:54;95730.19;;;12.54;47.12
77631;BME280;66798;47.370;8.552;2023-04-15T08:54:21;95731.75;;;11.97;48.14
77631;BME280;66798;47.370;8.552;2023-04-15T08:56:47;95728.13;;;12.74;47.42
77631;BME280;66798;47.370;8.552;2023-04-15T08:59:13;95724.84;;;11.18;51.93
77631;BME280;66798;47.370;8.552;2023-04-15T09:01:39;95729.59;;;11.71;52.04
77631;BME280;66798;47.370;8.552;2023-04-15T09:04:05;95727.06;;;11.24;50.12
77631;BME280;66798;47.370;8.552;2023-04-15T09:06:32;95738.03;;;10.52;52.01
77631;BME280;66798;47.370;8.552;2023-04-15T09:08:58;95739.06;;;11.17;50.41
77631;BME280;66798;47.370;8.552;2023-04-15T09:11:24;95729.69;;;10.97;51.31
77631;BME280;66798;47.370;8.552;2023-04-15T09:13:50;95736.22;;;10.99;50.47
77631;BME280;66798;47.370;8.552;2023-04-15T09:16:15;95735.81;;;10.92;51.41
77631;BME280;66798;47.370;8.552;2023-04-15T09:18:42;95746.38;;;11.20;50.88
77631;BME280;66798;47.370;8.552;2023-04-15T09:21:11;95745.06;;;10.90;49.72
77631;BME280;66798;47.370;8.552;2023-04-15T09:23:53;95749.84;;;12.71;47.38
77631;BME280;66798;47.370;8.552;2023-04-15T09:26:37;95751.03;;;12.06;47.08
77631;BME280;66798;47.370;8.552;2023-04-15T09:29:07;95753.25;;;13.25;44.84
77631;BME280;66798;47.370;8.552;2023-04-15T09:31:37;95758.28;;;12.00;47.19
77631;BME280;66798;47.370;8.552;2023-04-15T09:34:03;95760.22;;;12.08;50.24
77631;BME280;66798;47.370;8.552;2023-04-15T09:36:29;95757.56;;;12.90;47.01
77631;BME280;66798;47.370;8.552;2023-04-15T09:38:56;95757.22;;;13.14;46.50
77631;BME280;66798;47.370;8.552;2023-04-15T09:41:23;95759.47;;;11.94;49.29
77631;BME280;66798;47.370;8.552;2023-04-15T09:43:49;95760.13;;;11.72;53.50
77631;BME280;66798;47.370;8.552;2023-04-15T09:46:14;95763.09;;;12.57;53.87
77631;BME280;66798;47.370;8.552;2023-04-15T09:48:40;95764.63;;;12.58;54.08
77631;BME280;66798;47.370;8.552;2023-04-15T09:51:05;95767.19;;;10.37;58.01
77631;BME280;66798;47.370;8.552;2023-04-15T09:53:34;95779.66;;;10.64;57.52
77631;BME280;66798;47.370;8.552;2023-04-15T09:56:01;95772.13;;;10.00;58.02
77631;BME280;66798;47.370;8.552;2023-04-15T09:58:29;95780.44;;;10.27;58.82
77631;BME280;66798;47.370;8.552;2023-04-15T10:00:56;95785.78;;;11.53;56.57
77631;BME280;66798;47.370;8.552;2023-04-15T10:03:24;95780.97;;;12.24;53.79
77631;BME280;66798;47.370;8.552;2023-04-15T10:05:55;95784.72;;;10.93;57.46
77631;BME280;66798;47.370;8.552;2023-04-15T10:08:27;95791.16;;;10.87;54.64
77631;BME280;66798;47.370;8.552;2023-04-15T10:10:53;95790.00;;;11.95;55.40
77631;BME280;66798;47.370;8.552;2023-04-15T10:13:26;95783.38;;;10.63;57.63
77631;BME280;66798;47.370;8.552;2023-04-15T10:15:59;95791.56;;;10.43;57.87
77631;BME280;66798;47.370;8.552;2023-04-15T10:18:27;95792.19;;;9.91;60.28
77631;BME280;66798;47.370;8.552;2023-04-15T10:20:54;95791.41;;;10.53;60.33
77631;BME280;66798;47.370;8.552;2023-04-15T10:23:22;95797.22;;;10.69;61.15
77631;BME280;66798;47.370;8.552;2023-04-15T10:25:51;95791.88;;;10.74;61.72
77631;BME280;66798;47.370;8.552;2023-04-15T10:28:18;95792.97;;;10.87;61.77
77631;BME280;66798;47.370;8.552;2023-04-15T10:30:45;95801.16;;;10.33;64.70
77631;BME280;66798;47.370;8.552;2023-04-15T10:33:13;95805.41;;;10.48;65.58
77631;BME280;66798;47.370;8.552;2023-04-15T10:35:42;95804.75;;;10.18;64.42
77631;BME280;66798;47.370;8.552;2023-04-15T10:41:23;95802.00;;;10.48;62.90
77631;BME280;66798;47.370;8.552;2023-04-15T10:43:59;95802.66;;;11.38;59.76
77631;BME280;66798;47.370;8.552;2023-04-15T10:46:38;95802.59;;;11.71;57.47
77631;BME280;66798;47.370;8.552;2023-04-15T10:49:15;95811.03;;;10.17;59.87
77631;BME280;66798;47.370;8.552;2023-04-15T10:51:46;95808.59;;;10.64;60.22
77631;BME280;66798;47.370;8.552;2023-04-15T10:54:37;95812.97;;;11.34;59.46
77631;BME280;66798;47.370;8.552;2023-04-15T10:59:35;95816.03;;;11.55;57.67
77631;BME280;66798;47.370;8.552;2023-04-15T11:02:02;95818.09;;;12.64;55.98
77631;BME280;66798;47.370;8.552;2023-04-15T11:04:49;95822.66;;;13.48;52.21
77631;BME280;66798;47.370;8.552;2023-04-15T11:10:00;95822.50;;;13.22;51.20
77631;BME280;66798;47.370;8.552;2023-04-15T11:12:35;95828.19;;;13.15;49.99
77631;BME280;66798;47.370;8.552;2023-04-15T11:15:39;95832.00;;;12.42;52.47
77631;BME280;66798;47.370;8.552;2023-04-15T11:18:19;95834.97;;;12.26;51.32
77631;BME280;66798;47.370;8.552;2023-04-15T11:23:34;95846.69;;;11.18;54.58
77631;BME280;66798;47.370;8.552;2023-04-15T11:26:02;95853.53;;;11.80;54.19
77631;BME280;66798;47.370;8.552;2023-04-15T11:28:31;95854.53;;;11.51;56.03
77631;BME280;66798;47.370;8.552;2023-04-15T11:30:57;95860.78;;;11.41;55.26
77631;BME280;66798;47.370;8.552;2023-04-15T11:33:24;95851.19;;;12.20;53.65
77631;BME280;66798;47.370;8.552;2023-04-15T11:35:53;95859.19;;;12.15;53.28
77631;BME280;66798;47.370;8.552;2023-04-15T11:38:20;95861.28;;;12.04;54.64
77631;BME280;66798;47.370;8.552;2023-04-15T11:40:47;95865.34;;;11.96;52.58
77631;BME280;66798;47.370;8.552;2023-04-15T11:43:17;95862.22;;;11.80;53.15
77631;BME280;66798;47.370;8.552;2023-04-15T11:45:56;95871.97;;;12.49;51.44
77631;BME280;66798;47.370;8.552;2023-04-15T11:48:25;95872.66;;;12.41;49.69
77631;BME280;66798;47.370;8.552;2023-04-15T11:50:55;95881.94;;;11.83;51.57
77631;BME280;66798;47.370;8.552;2023-04-15T11:53:22;95881.38;;;10.88;53.50
77631;BME280;66798;47.370;8.552;2023-04-15T11:55:50;95878.78;;;11.20;53.88
77631;BME280;66798;47.370;8.552;2023-04-15T11:58:19;95887.53;;;11.95;52.15
77631;BME280;66798;47.370;8.552;2023-04-15T12:00:57;95880.09;;;11.04;53.67
77631;BME280;66798;47.370;8.552;2023-04-15T12:03:40;95893.59;;;10.78;55.05
77631;BME280;66798;47.370;8.552;2023-04-15T12:06:18;95893.03;;;11.33;54.40
77631;BME280;66798;47.370;8.552;2023-04-15T12:09:04;95895.78;;;11.09;54.97
77631;BME280;66798;47.370;8.552;2023-04-15T12:14:19;95906.00;;;11.76;53.60
77631;BME280;66798;47.370;8.552;2023-04-15T12:16:54;95912.03;;;11.49;53.54
77631;BME280;66798;47.370;8.552;2023-04-15T12:19:36;95909.41;;;13.10;51.16
77631;BME280;66798;47.370;8.552;2023-04-15T12:22:04;95915.53;;;13.64;51.03
77631;BME280;66798;47.370;8.552;2023-04-15T12:24:32;95917.50;;;14.21;50.17
77631;BME280;66798;47.370;8.552;2023-04-15T12:27:10;95915.31;;;13.29;49.53
77631;BME280;66798;47.370;8.552;2023-04-15T12:29:38;95917.75;;;13.71;48.51
77631;BME280;66798;47.370;8.552;2023-04-15T12:32:09;95925.59;;;13.85;48.82
77631;BME280;66798;47.370;8.552;2023-04-15T12:34:42;95928.88;;;15.22;46.23
77631;BME280;66798;47.370;8.552;2023-04-15T12:37:10;95929.03;;;13.54;48.88
77631;BME280;66798;47.370;8.552;2023-04-15T12:39:38;95930.25;;;14.59;46.68
77631;BME280;66798;47.370;8.552;2023-04-15T12:42:04;95926.25;;;13.59;47.52
77631;BME280;66798;47.370;8.552;2023-04-15T12:44:31;95926.16;;;13.73;49.26
77631;BME280;66798;47.370;8.552;2023-04-15T12:46:58;95945.06;;;13.89;49.40
77631;BME280;66798;47.370;8.552;2023-04-15T12:49:26;95943.28;;;13.75;47.47
77631;BME280;66798;47.370;8.552;2023-04-15T12:51:56;95941.69;;;14.45;45.64
77631;BME280;66798;47.370;8.552;2023-04-15T12:54:23;95955.13;;;14.49;46.41
77631;BME280;66798;47.370;8.552;2023-04-15T12:56:49;95954.09;;;14.76;47.27
77631;BME280;66798;47.370;8.552;2023-04-15T12:59:16;95955.97;;;14.76;43.06
77631;BME280;66798;47.370;8.552;2023-04-15T13:01:45;95959.53;;;15.93;42.52
77631;BME280;66798;47.370;8.552;2023-04-15T13:04:11;95964.16;;;13.86;47.30
77631;BME280;66798;47.370;8.552;2023-04-15T13:06:37;95962.41;;;15.18;45.18
77631;BME280;66798;47.370;8.552;2023-04-15T13:09:02;95964.34;;;14.60;46.66
77631;BME280;66798;47.370;8.552;2023-04-15T13:11:29;95964.56;;;13.48;47.90
77631;BME280;66798;47.370;8.552;2023-04-15T13:14:03;95976.31;;;12.91;48.89
77631;BME280;66798;47.370;8.552;2023-04-15T13:16:28;95979.41;;;12.16;51.15
77631;BME280;66798;47.370;8.552;2023-04-15T13:18:54;95985.41;;;11.69;52.24
77631;BME280;66798;47.370;8.552;2023-04-15T13:21:19;95987.31;;;11.83;54.84
77631;BME280;66798;47.370;8.552;2023-04-15T13:23:45;95987.53;;;11.54;55.49
77631;BME280;66798;47.370;8.552;2023-04-15T13:26:11;95993.25;;;11.23;54.71
77631;BME280;66798;47.370;8.552;2023-04-15T13:28:37;95992.28;;;11.71;54.74
77631;BME280;66798;47.370;8.552;2023-04-15T13:31:03;95995.88;;;12.07;52.77
77631;BME280;66798;47.370;8.552;2023-04-15T13:33:29;95998.25;;;11.57;54.04
77631;BME280;66798;47.370;8.552;2023-04-15T13:35:54;96004.69;;;12.17;52.94
77631;BME280;66798;47.370;8.552;2023-04-15T13:38:20;96009.69;;;12.60;52.28
77631;BME280;66798;47.370;8.552;2023-04-15T13:40:46;96008.69;;;12.97;52.79
77631;BME280;66798;47.370;8.552;2023-04-15T13:43:11;96008.38;;;13.49;51.63
77631;BME280;66798;47.370;8.552;2023-04-15T13:45:37;96017.91;;;12.44;53.91
77631;BME280;66798;47.370;8.552;2023-04-15T13:48:03;96017.06;;;12.02;54.45
77631;BME280;66798;47.370;8.552;2023-04-15T13:50:28;96016.84;;;11.66;54.55
77631;BME280;66798;47.370;8.552;2023-04-15T13:52:54;96022.38;;;11.64;55.47
77631;BME280;66798;47.370;8.552;2023-04-15T13:55:19;96019.88;;;11.73;56.01
77631;BME280;66798;47.370;8.552;2023-04-15T13:57:45;96019.19;;;11.48;55.90
77631;BME280;66798;47.370;8.552;2023-04-15T14:00:11;96012.66;;;11.98;55.40
77631;BME280;66798;47.370;8.552;2023-04-15T14:02:36;96020.97;;;11.34;58.44
77631;BME280;66798;47.370;8.552;2023-04-15T14:05:02;96025.81;;;11.46;56.57
77631;BME280;66798;47.370;8.552;2023-04-15T14:07:29;96033.44;;;11.29;57.41
77631;BME280;66798;47.370;8.552;2023-04-15T14:09:55;96032.78;;;11.37;56.55
77631;BME280;66798;47.370;8.552;2023-04-15T14:12:22;96032.34;;;11.30;56.48
77631;BME280;66798;47.370;8.552;2023-04-15T14:14:47;96031.31;;;11.31;55.71
77631;BME280;66798;47.370;8.552;2023-04-15T14:17:13;96045.44;;;11.92;54.09
77631;BME280;66798;47.370;8.552;2023-04-15T14:19:39;96051.38;;;12.16;53.85
77631;BME280;66798;47.370;8.552;2023-04-15T14:22:04;96054.34;;;12.84;52.47
77631;BME280;66798;47.370;8.552;2023-04-15T14:24:30;96055.81;;;12.90;52.45
77631;BME280;66798;47.370;8.552;2023-04-15T14:26:55;96059.41;;;12.94;51.26
77631;BME280;66798;47.370;8.552;2023-04-15T14:29:21;96065.59;;;12.89;50.80
77631;BME280;66798;47.370;8.552;2023-04-15T14:31:47;96066.09;;;11.65;53.74
77631;BME280;66798;47.370;8.552;2023-04-15T14:34:15;96074.06;;;11.98;54.39
77631;BME280;66798;47.370;8.552;2023-04-15T14:36:41;96079.53;;;12.02;52.85
77631;BME280;66798;47.370;8.552;2023-04-15T14:39:07;96086.47;;;11.98;53.76
77631;BME280;66798;47.370;8.552;2023-04-15T14:41:33;96083.63;;;11.56;54.48
77631;BME280;66798;47.370;8.552;2023-04-15T14:43:58;96088.94;;;11.13;54.21
77631;BME280;66798;47.370;8.552;2023-04-15T14:46:24;96101.09;;;10.85;55.81
77631;BME280;66798;47.370;8.552;2023-04-15T14:48:50;96103.81;;;10.75;56.36
77631;BME280;66798;47.370;8.552;2023-04-15T14:51:16;96103.22;;;10.30;57.02
77631;BME280;66798;47.370;8.552;2023-04-15T14:53:41;96110.63;;;10.52;56.72
77631;BME280;66798;47.370;8.552;2023-04-15T14:56:08;96113.47;;;10.84;56.23
77631;BME280;66798;47.370;8.552;2023-04-15T14:58:33;96117.31;;;10.92;56.79
77631;BME280;66798;47.370;8.552;2023-04-15T15:00:59;96120.22;;;10.37;58.67
77631;BME280;66798;47.370;8.552;2023-04-15T15:03:26;96123.44;;;10.88;58.01
77631;BME280;66798;47.370;8.552;2023-04-15T15:05:51;96133.38;;;10.91;59.34
77631;BME280;66798;47.370;8.552;2023-04-15T15:08:17;96148.13;;;10.62;61.30
77631;BME280;66798;47.370;8.552;2023-04-15T15:10:42;96148.59;;;10.70;60.81
77631;BME280;66798;47.370;8.552;2023-04-15T15:13:09;96156.16;;;10.08;61.73
77631;BME280;66798;47.370;8.552;2023-04-15T15:15:36;96164.91;;;9.53;62.74
77631;BME280;66798;47.370;8.552;2023-04-15T15:18:01;96167.97;;;9.71;62.87
77631;BME280;66798;47.370;8.552;2023-04-15T15:20:27;96176.22;;;9.44;63.62
77631;BME280;66798;47.370;8.552;2023-04-15T15:22:53;96177.22;;;9.63;62.88
77631;BME280;66798;47.370;8.552;2023-04-15T15:25:19;96183.56;;;9.52;62.68
77631;BME280;66798;47.370;8.552;2023-04-15T15:27:44;96183.81;;;9.50;62.72
77631;BME280;66798;47.370;8.552;2023-04-15T15:30:11;96183.66;;;9.26;64.08
77631;BME280;66798;47.370;8.552;2023-04-15T15:32:41;96186.03;;;9.23;63.57
77631;BME280;66798;47.370;8.552;2023-04-15T15:35:07;96192.06;;;9.23;63.66
77631;BME280;66798;47.370;8.552;2023-04-15T15:37:34;96187.81;;;9.38;63.98
77631;BME280;66798;47.370;8.552;2023-04-15T15:40:00;96192.16;;;9.68;62.65
77631;BME280;66798;47.370;8.552;2023-04-15T15:42:30;96198.38;;;9.82;62.53
77631;BME280;66798;47.370;8.552;2023-04-15T15:44:56;96194.72;;;10.17;61.16
77631;BME280;66798;47.370;8.552;2023-04-15T15:47:21;96202.94;;;10.06;62.59
77631;BME280;66798;47.370;8.552;2023-04-15T15:49:47;96208.56;;;9.89;62.39
77631;BME280;66798;47.370;8.552;2023-04-15T15:52:13;96210.97;;;9.85;62.50
77631;BME280;66798;47.370;8.552;2023-04-15T15:54:39;96219.41;;;9.77;63.61
77631;BME280;66798;47.370;8.552;2023-04-15T15:57:05;96212.88;;;10.19;62.68
77631;BME280;66798;47.370;8.552;2023-04-15T15:59:31;96220.38;;;9.91;63.25
77631;BME280;66798;47.370;8.552;2023-04-15T16:01:57;96232.13;;;9.49;63.52
77631;BME280;66798;47.370;8.552;2023-04-15T16:04:23;96238.25;;;9.94;62.45
77631;BME280;66798;47.370;8.552;2023-04-15T16:06:49;96243.38;;;9.60;63.99
77631;BME280;66798;47.370;8.552;2023-04-15T16:09:14;96247.34;;;9.52;64.98
77631;BME280;66798;47.370;8.552;2023-04-15T16:11:40;96254.72;;;10.05;63.52
77631;BME280;66798;47.370;8.552;2023-04-15T16:14:06;96259.66;;;10.17;62.26
77631;BME280;66798;47.370;8.552;2023-04-15T16:16:31;96270.50;;;10.05;63.41
77631;BME280;66798;47.370;8.552;2023-04-15T16:18:56;96282.66;;;9.86;64.38
77631;BME280;66798;47.370;8.552;2023-04-15T16:21:22;96292.44;;;9.75;66.00
77631;BME280;66798;47.370;8.552;2023-04-15T16:23:49;96289.69;;;9.10;67.80
77631;BME280;66798;47.370;8.552;2023-04-15T16:26:15;96290.22;;;9.07;69.70
77631;BME280;66798;47.370;8.552;2023-04-15T16:28:42;96301.50;;;9.07;70.57
77631;BME280;66798;47.370;8.552;2023-04-15T16:31:11;96297.31;;;9.01;71.36
77631;BME280;66798;47.370;8.552;2023-04-15T16:33:37;96295.75;;;8.90;71.05
77631;BME280;66798;47.370;8.552;2023-04-15T16:36:03;96301.78;;;8.85;72.74
77631;BME280;66798;47.370;8.552;2023-04-15T16:38:30;96280.50;;;8.46;73.88
77631;BME280;66798;47.370;8.552;2023-04-15T16:40:59;96246.63;;;8.08;75.55
77631;BME280;66798;47.370;8.552;2023-04-15T16:43:26;96242.94;;;7.94;75.79
77631;BME280;66798;47.370;8.552;2023-04-15T16:45:51;96240.56;;;7.93;75.52
77631;BME280;66798;47.370;8.552;2023-04-15T16:48:20;96233.75;;;7.97;76.69
77631;BME280;66798;47.370;8.552;2023-04-15T16:50:46;96243.00;;;8.25;77.32
77631;BME280;66798;47.370;8.552;2023-04-15T16:53:15;96249.88;;;8.46;76.89
77631;BME280;66798;47.370;8.552;2023-04-15T16:55:41;96250.31;;;8.28;76.03
77631;BME280;66798;47.370;8.552;2023-04-15T16:58:06;96250.84;;;8.30;76.43
77631;BME280;66798;47.370;8.552;2023-04-15T17:00:32;96260.22;;;8.05;75.87
77631;BME280;66798;47.370;8.552;2023-04-15T17:03:00;96263.44;;;8.23;76.52
77631;BME280;66798;47.370;8.552;2023-04-15T17:05:26;96273.09;;;8.12;76.23
77631;BME280;66798;47.370;8.552;2023-04-15T17:07:51;96273.63;;;8.14;75.59
77631;BME280;66798;47.370;8.552;2023-04-15T17:10:17;96281.22;;;8.26;74.42
77631;BME280;66798;47.370;8.552;2023-04-15T17:12:42;96295.06;;;8.01;74.06
77631;BME280;66798;47.370;8.552;2023-04-15T17:15:08;96291.16;;;8.03;74.51
77631;BME280;66798;47.370;8.552;2023-04-15T17:17:34;96290.84;;;7.90;74.31
77631;BME280;66798;47.370;8.552;2023-04-15T17:19:59;96297.41;;;7.97;73.59
77631;BME280;66798;47.370;8.552;2023-04-15T17:22:24;96305.50;;;7.96;73.82
77631;BME280;66798;47.370;8.552;2023-04-15T17:24:50;96312.31;;;7.92;72.16
77631;BME280;66798;47.370;8.552;2023-04-15T17:27:15;96305.00;;;7.94;70.88
77631;BME280;66798;47.370;8.552;2023-04-15T17:29:41;96307.00;;;7.76;70.54
77631;BME280;66798;47.370;8.552;2023-04-15T17:32:06;96309.63;;;7.76;71.23
77631;BME280;66798;47.370;8.552;2023-04-15T17:34:32;96327.19;;;7.81;71.65
77631;BME280;66798;47.370;8.552;2023-04-15T17:36:57;96328.44;;;7.68;70.34
77631;BME280;66798;47.370;8.552;2023-04-15T17:39:23;96334.25;;;7.75;70.42
77631;BME280;66798;47.370;8.552;2023-04-15T17:41:48;96338.19;;;7.83;72.59
77631;BME280;66798;47.370;8.552;2023-04-15T17:44:14;96342.06;;;7.70;71.75
77631;BME280;66798;47.370;8.552;2023-04-15T17:46:39;96351.97;;;7.63;72.12
77631;BME280;66798;47.370;8.552;2023-04-15T17:49:05;96348.06;;;7.65;71.73
77631;BME280;66798;47.370;8.552;2023-04-15T17:51:30;96351.91;;;7.53;72.49
77631;BME280;66798;47.370;8.552;2023-04-15T17:53:56;96357.66;;;7.50;71.86
77631;BME280;66798;47.370;8.552;2023-04-15T17:56:21;96355.81;;;7.50;72.13
77631;BME280;66798;47.370;8.552;2023-04-15T17:58:47;96370.72;;;7.50;72.87
77631;BME280;66798;47.370;8.552;2023-04-15T18:01:12;96371.28;;;7.52;72.78
77631;BME280;66798;47.370;8.552;2023-04-15T18:03:38;96370.72;;;7.50;73.06
77631;BME280;66798;47.370;8.552;2023-04-15T18:06:03;96375.59;;;7.36;73.79
77631;BME280;66798;47.370;8.552;2023-04-15T18:08:30;96381.63;;;7.36;74.34
77631;BME280;66798;47.370;8.552;2023-04-15T18:10:55;96374.31;;;7.38;75.68
77631;BME280;66798;47.370;8.552;2023-04-15T18:13:20;96382.66;;;7.35;75.90
77631;BME280;66798;47.370;8.552;2023-04-15T18:15:46;96391.44;;;7.51;75.88
77631;BME280;66798;47.370;8.552;2023-04-15T18:18:12;96389.59;;;7.52;76.25
77631;BME280;66798;47.370;8.552;2023-04-15T18:20:38;96394.03;;;7.51;76.75
77631;BME280;66798;47.370;8.552;2023-04-15T18:23:03;96393.91;;;7.36;76.84
77631;BME280;66798;47.370;8.552;2023-04-15T18:25:30;96406.00;;;7.42;76.92
77631;BME280;66798;47.370;8.552;2023-04-15T18:27:56;96404.19;;;7.42;77.14
77631;BME280;66798;47.370;8.552;2023-04-15T18:30:22;96410.28;;;7.53;76.79
77631;BME280;66798;47.370;8.552;2023-04-15T18:32:47;96416.97;;;7.39;76.93
77631;BME280;66798;47.370;8.552;2023-04-15T18:35:13;96421.97;;;7.45;76.48
77631;BME280;66798;47.370;8.552;2023-04-15T18:37:38;96420.97;;;7.47;75.94
77631;BME280;66798;47.370;8.552;2023-04-15T18:40:05;96422.22;;;7.39;75.95
77631;BME280;66798;47.370;8.552;2023-04-15T18:42:31;96441.84;;;7.41;76.55
77631;BME280;66798;47.370;8.552;2023-04-15T18:44:56;96442.91;;;7.45;76.32
77631;BME280;66798;47.370;8.552;2023-04-15T18:47:24;96442.63;;;7.42;76.01
77631;BME280;66798;47.370;8.552;2023-04-15T18:49:50;96455.75;;;7.47;75.92
77631;BME280;66798;47.370;8.552;2023-04-15T18:52:16;96451.50;;;7.41;75.96
77631;BME280;66798;47.370;8.552;2023-04-15T18:54:41;96456.44;;;7.32;75.89
77631;BME280;66798;47.370;8.552;2023-04-15T18:57:06;96457.78;;;7.40;75.92
77631;BME280;66798;47.370;8.552;2023-04-15T18:59:32;96465.13;;;7.43;76.00
77631;BME280;66798;47.370;8.552;2023-04-15T19:01:59;96461.50;;;7.44;75.54
77631;BME280;66798;47.370;8.552;2023-04-15T19:04:25;96471.13;;;7.38;75.57
77631;BME280;66798;47.370;8.552;2023-04-15T19:06:52;96471.88;;;7.34;75.70
77631;BME280;66798;47.370;8.552;2023-04-15T19:09:18;96476.03;;;7.30;76.07
77631;BME280;66798;47.370;8.552;2023-04-15T19:11:43;96469.41;;;7.22;76.13
77631;BME280;66798;47.370;8.552;2023-04-15T19:14:10;96482.63;;;7.37;75.99
77631;BME280;66798;47.370;8.552;2023-04-15T19:16:35;96482.88;;;7.36;75.73
77631;BME280;66798;47.370;8.552;2023-04-15T19:19:01;96477.31;;;7.27;75.98
77631;BME280;66798;47.370;8.552;2023-04-15T19:21:28;96482.63;;;7.37;76.34
77631;BME280;66798;47.370;8.552;2023-04-15T19:23:55;96487.38;;;7.40;76.36
77631;BME280;66798;47.370;8.552;2023-04-15T19:26:21;96482.41;;;7.39;75.57
77631;BME280;66798;47.370;8.552;2023-04-15T19:28:47;96481.16;;;7.47;75.23
77631;BME280;66798;47.370;8.552;2023-04-15T19:31:13;96498.13;;;7.44;75.59
77631;BME280;66798;47.370;8.552;2023-04-15T19:33:38;96492.97;;;7.54;74.95
77631;BME280;66798;47.370;8.552;2023-04-15T19:36:05;96507.91;;;7.54;75.17
77631;BME280;66798;47.370;8.552;2023-04-15T19:38:32;96508.47;;;7.61;74.22
77631;BME280;66798;47.370;8.552;2023-04-15T19:41:00;96522.31;;;7.56;74.66
77631;BME280;66798;47.370;8.552;2023-04-15T19:43:26;96530.16;;;7.56;74.89
77631;BME280;66798;47.370;8.552;2023-04-15T19:45:51;96526.91;;;7.44;75.95
77631;BME280;66798;47.370;8.552;2023-04-15T19:48:19;96532.59;;;7.36;75.61
77631;BME280;66798;47.370;8.552;2023-04-15T19:50:44;96549.03;;;7.31;77.60
77631;BME280;66798;47.370;8.552;2023-04-15T19:53:10;96527.91;;;7.11;77.68
77631;BME280;66798;47.370;8.552;2023-04-15T19:55:36;96537.41;;;6.95;78.64
77631;BME280;66798;47.370;8.552;2023-04-15T19:58:01;96547.31;;;6.93;79.79
77631;BME280;66798;47.370;8.552;2023-04-15T20:00:27;96549.13;;;6.92;81.09
77631;BME280;66798;47.370;8.552;2023-04-15T20:02:54;96547.56;;;6.91;80.16
77631;BME280;66798;47.370;8.552;2023-04-15T20:05:20;96546.47;;;6.87;79.63
77631;BME280;66798;47.370;8.552;2023-04-15T20:07:45;96549.88;;;6.88;80.21
77631;BME280;66798;47.370;8.552;2023-04-15T20:10:13;96552.28;;;6.94;80.37
77631;BME280;66798;47.370;8.552;2023-04-15T20:12:39;96553.38;;;6.76;80.27
77631;BME280;66798;47.370;8.552;2023-04-15T20:15:06;96546.97;;;6.84;81.11
77631;BME280;66798;47.370;8.552;2023-04-15T20:17:32;96546.97;;;6.84;80.37
77631;BME280;66798;47.370;8.552;2023-04-15T20:19:58;96546.97;;;6.84;80.41
77631;BME280;66798;47.370;8.552;2023-04-15T20:22:23;96543.97;;;6.75;81.08
77631;BME280;66798;47.370;8.552;2023-04-15T20:24:49;96547.97;;;6.83;80.56
77631;BME280;66798;47.370;8.552;2023-04-15T20:27:14;96553.59;;;6.70;79.56
77631;BME280;66798;47.370;8.552;2023-04-15T20:29:40;96557.44;;;6.67;79.94
77631;BME280;66798;47.370;8.552;2023-04-15T20:32:06;96553.25;;;6.66;80.08
77631;BME280;66798;47.370;8.552;2023-04-15T20:34:35;96547.00;;;6.67;78.76
77631;BME280;66798;47.370;8.552;2023-04-15T20:37:01;96544.38;;;6.67;78.74
77631;BME280;66798;47.370;8.552;2023-04-15T20:39:26;96556.91;;;6.65;78.30
77631;BME280;66798;47.370;8.552;2023-04-15T20:41:52;96557.22;;;6.69;79.26
77631;BME280;66798;47.370;8.552;2023-04-15T20:44:17;96551.56;;;6.77;79.21
77631;BME280;66798;47.370;8.552;2023-04-15T20:46:43;96562.03;;;6.77;78.90
77631;BME280;66798;47.370;8.552;2023-04-15T20:49:09;96559.94;;;6.79;79.33
77631;BME280;66798;47.370;8.552;2023-04-15T20:51:34;96556.88;;;6.82;79.91
77631;BME280;66798;47.370;8.552;2023-04-15T20:54:03;96555.59;;;6.85;79.16